createdAt,value
2023-04-04T00:03:14.939Z,2.20
2023-04-04T00:08:07.204Z,2.20
2023-04-04T00:12:59.058Z,2.10
2023-04-04T00:17:51.783Z,2.00
2023-04-04T00:22:43.481Z,2.00
2023-04-04T00:27:35.151Z,1.90
2023-04-04T00:32:31.746Z,1.80
2023-04-04T00:37:23.484Z,1.80
2023-04-04T00:42:15.281Z,1.80
2023-04-04T00:47:07.048Z,1.80
2023-04-04T00:51:59.200Z,1.70
2023-04-04T00:56:55.093Z,1.70
2023-04-04T01:01:47.107Z,1.70
2023-04-04T01:06:38.888Z,1.60
2023-04-04T01:11:31.102Z,1.60
2023-04-04T01:16:24.109Z,1.60
2023-04-04T01:21:18.150Z,1.60
2023-04-04T01:26:10.234Z,1.50
2023-04-04T01:31:04.535Z,1.50
2023-04-04T01:36:13.932Z,1.40
2023-04-04T01:41:12.000Z,1.40
2023-04-04T01:46:04.262Z,1.30
2023-04-04T01:50:56.912Z,1.30
2023-04-04T01:55:48.603Z,1.30
2023-04-04T02:00:40.492Z,1.30
2023-04-04T02:05:32.387Z,1.20
2023-04-04T02:10:24.118Z,1.20
2023-04-04T02:15:15.904Z,1.10
2023-04-04T02:20:08.405Z,1.10
2023-04-04T02:25:02.590Z,1.20
2023-04-04T02:29:55.197Z,1.00
2023-04-04T02:34:47.532Z,1.00
2023-04-04T02:39:39.202Z,1.00
2023-04-04T02:44:31.242Z,0.90
2023-04-04T02:49:23.031Z,0.90
2023-04-04T02:54:14.722Z,1.00
2023-04-04T02:59:06.468Z,0.90
2023-04-04T03:03:58.731Z,1.00
2023-04-04T03:08:50.469Z,0.90
2023-04-04T03:13:42.145Z,0.80
2023-04-04T03:18:34.631Z,0.80
2023-04-04T03:23:26.562Z,0.80
2023-04-04T03:28:18.227Z,0.80
2023-04-04T03:33:10.062Z,0.80
2023-04-04T03:38:03.394Z,0.70
2023-04-04T03:42:55.144Z,0.70
2023-04-04T03:47:47.212Z,0.70
2023-04-04T03:52:41.705Z,0.60
2023-04-04T03:57:33.708Z,0.60
2023-04-04T04:02:29.230Z,0.60
2023-04-04T04:07:21.398Z,0.60
2023-04-04T04:12:13.077Z,0.60
2023-04-04T04:17:05.483Z,0.60
2023-04-04T04:21:57.167Z,0.50
2023-04-04T04:26:48.902Z,0.50
2023-04-04T04:31:41.627Z,0.60
2023-04-04T04:36:33.588Z,0.50
2023-04-04T04:41:25.811Z,0.40
2023-04-04T04:46:17.633Z,0.40
2023-04-04T04:51:09.419Z,0.40
2023-04-04T04:56:01.111Z,0.40
2023-04-04T05:00:57.641Z,0.40
2023-04-04T05:10:56.141Z,0.40
2023-04-04T05:15:47.937Z,0.40
2023-04-04T05:20:40.247Z,0.90
2023-04-04T05:25:32.750Z,1.50
2023-04-04T05:30:24.690Z,1.90
2023-04-04T05:35:16.512Z,2.10
2023-04-04T05:40:10.313Z,2.40
2023-04-04T05:55:17.118Z,3.90
2023-04-04T06:00:12.612Z,4.50
2023-04-04T06:05:08.597Z,4.20
2023-04-04T06:10:00.272Z,4.00
2023-04-04T06:14:51.960Z,3.90
2023-04-04T06:19:43.654Z,4.10
2023-04-04T06:34:47.920Z,3.80
2023-04-04T06:39:39.610Z,3.50
2023-04-04T06:49:42.623Z,2.40
2023-04-04T06:54:34.866Z,2.30
2023-04-04T06:59:28.472Z,2.10
2023-04-04T07:04:20.630Z,2.30
2023-04-04T07:09:21.997Z,2.20
2023-04-04T07:14:28.567Z,2.40
2023-04-04T07:19:21.046Z,2.30
2023-04-04T07:29:19.344Z,2.60
2023-04-04T07:34:11.404Z,2.70
2023-04-04T07:39:13.097Z,2.60
2023-04-04T07:44:06.614Z,2.60
2023-04-04T07:48:59.388Z,2.80
2023-04-04T07:53:51.897Z,3.00
2023-04-04T07:58:43.602Z,3.00
2023-04-04T08:03:35.661Z,2.90
2023-04-04T08:13:36.556Z,3.10
2023-04-04T08:23:36.899Z,3.30
2023-04-04T08:28:29.345Z,3.50
2023-04-04T08:33:37.421Z,3.50
2023-04-04T08:38:42.683Z,3.70
2023-04-04T08:43:38.470Z,3.80
2023-04-04T08:48:32.033Z,3.60
2023-04-04T09:03:46.434Z,4.10
2023-04-04T09:08:41.007Z,4.20
2023-04-04T09:13:39.140Z,4.00
2023-04-04T09:18:33.304Z,4.30
2023-04-04T09:28:36.897Z,4.70
2023-04-04T09:38:40.811Z,4.90
2023-04-04T09:43:35.440Z,4.80
2023-04-04T09:53:41.928Z,5.10
2023-04-04T09:58:52.325Z,5.10
2023-04-04T10:50:40.684Z,5.60
2023-04-04T10:55:48.749Z,5.40
2023-04-04T11:01:01.001Z,5.60
2023-04-04T11:06:00.583Z,6.00
2023-04-04T11:11:01.563Z,5.90
2023-04-04T11:21:32.830Z,5.90
2023-04-04T11:26:30.340Z,5.90
2023-04-04T11:42:14.339Z,6.30
2023-04-04T11:47:05.966Z,6.30
2023-04-04T11:51:59.334Z,6.50
2023-04-04T12:02:01.513Z,6.50
2023-04-04T12:12:13.456Z,6.50
2023-04-04T12:17:05.887Z,6.60
2023-04-04T12:21:58.097Z,6.50
2023-04-04T12:26:55.317Z,6.60
2023-04-04T12:31:49.465Z,6.50
2023-04-04T12:36:41.375Z,6.60
2023-04-04T12:41:35.518Z,6.30
2023-04-04T12:46:36.814Z,6.50
2023-04-04T13:01:49.936Z,6.80
2023-04-04T13:06:49.248Z,6.50
2023-04-04T13:12:14.992Z,6.70
2023-04-04T13:17:17.955Z,6.70
2023-04-04T13:22:09.716Z,6.80
2023-04-04T13:27:01.799Z,7.00
2023-04-04T13:31:53.748Z,6.90
2023-04-04T13:57:23.834Z,6.90
2023-04-04T14:07:26.520Z,7.00
2023-04-04T14:12:19.264Z,7.30
2023-04-04T14:37:35.628Z,7.30
2023-04-04T15:08:02.339Z,7.10
2023-04-04T15:18:01.926Z,7.30
2023-04-04T15:22:54.369Z,7.20
2023-04-04T15:27:46.140Z,7.20
2023-04-04T15:32:37.872Z,7.30
2023-04-04T15:42:35.562Z,7.10
2023-04-04T15:47:27.273Z,7.00
2023-04-04T15:52:18.983Z,7.20
2023-04-04T16:02:21.581Z,7.10
2023-04-04T16:07:13.262Z,7.00
2023-04-04T16:12:05.576Z,7.00
2023-04-04T16:16:58.127Z,7.00
2023-04-04T16:21:49.865Z,7.00
2023-04-04T16:26:47.188Z,7.00
2023-04-04T16:31:39.005Z,6.90
2023-04-04T17:02:34.642Z,6.70
2023-04-04T17:07:27.195Z,6.70
2023-04-04T17:12:24.179Z,6.60
2023-04-04T17:17:16.273Z,6.40
2023-04-04T17:22:08.078Z,6.40
2023-04-04T17:27:01.324Z,6.30
2023-04-04T18:03:00.052Z,5.60
2023-04-04T18:13:01.099Z,5.40
2023-04-04T18:17:53.458Z,5.30
2023-04-04T18:22:45.650Z,5.30
2023-04-04T18:27:37.394Z,5.20
2023-04-04T18:32:31.000Z,5.10
2023-04-04T18:37:22.818Z,5.00
2023-04-04T18:42:15.478Z,4.90
2023-04-04T18:47:08.753Z,4.90
2023-04-04T18:57:09.123Z,4.70
2023-04-04T19:17:32.860Z,4.40
2023-04-04T20:04:13.922Z,3.80
2023-04-04T20:09:39.910Z,3.80
2023-04-04T20:14:31.611Z,3.80
2023-04-04T20:19:29.526Z,3.70
2023-04-04T20:50:18.183Z,3.50
2023-04-04T20:55:23.900Z,3.60
2023-04-04T21:00:42.599Z,3.50
2023-04-04T21:21:25.744Z,3.20
2023-04-04T21:36:51.222Z,3.00
2023-04-04T21:52:01.707Z,3.00
2023-04-04T22:07:15.073Z,3.00
2023-04-04T22:12:16.501Z,3.10
2023-04-04T22:17:08.410Z,3.10
2023-04-04T22:22:00.190Z,3.00
2023-04-04T22:27:01.552Z,3.00
2023-04-04T22:31:53.427Z,3.00
2023-04-04T22:36:45.668Z,3.00
2023-04-04T22:41:41.436Z,3.00
2023-04-04T22:51:45.746Z,3.00
2023-04-04T23:01:52.136Z,2.90
2023-04-04T23:17:41.281Z,3.00
2023-04-04T23:22:42.137Z,3.00
2023-04-04T23:27:36.793Z,3.10
2023-04-04T23:38:13.308Z,2.90
2023-04-04T23:43:19.040Z,3.00
2023-04-04T23:48:11.738Z,3.00
2023-04-04T23:53:03.496Z,2.90
